Time;durP1;ratioP1;P1;durP2;ratioP2;P2;SDS_P1;SDS_P2;PMS_P1;PMS_P2;Temp;Humidity;BMP_temperature;BMP_pressure;BME280_temperature;BME280_humidity;BME280_pressure;Samples;Min_cycle;Max_cycle;Signal;HPM_P1;HPM_P2
2021/06/28 00:02:01;;;;;;;24.03;21.57;;;;;;;17.52;83.02;99045.05;124763;1093;64284;-77
2021/06/28 00:04:28;;;;;;;24.07;21.60;;;;;;;17.45;83.16;99044.76;124813;1092;64329;-77
2021/06/28 00:06:56;;;;;;;27.43;24.53;;;;;;;17.43;83.35;99044.08;124786;1093;64245;-77
2021/06/28 00:09:23;;;;;;;25.70;23.00;;;;;;;17.44;83.70;99042.23;124799;1093;64415;-77
2021/06/28 00:11:51;;;;;;;28.50;25.50;;;;;;;17.42;83.68;99045.05;124747;1093;64223;-77
2021/06/28 00:14:18;;;;;;;25.70;23.13;;;;;;;17.38;83.64;99040.97;124864;1093;64245;-77
2021/06/28 00:16:45;;;;;;;20.13;18.17;;;;;;;17.36;83.28;99040.26;124919;1093;64263;-77
2021/06/28 00:19:12;;;;;;;22.03;19.77;;;;;;;17.28;83.11;99042.83;125195;1093;64307;-77
2021/06/28 00:21:39;;;;;;;25.40;22.80;;;;;;;17.21;83.44;99033.61;125167;1093;64294;-77
2021/06/28 00:24:07;;;;;;;26.70;24.03;;;;;;;17.14;83.46;99030.66;125196;1093;64316;-77
2021/06/28 00:26:35;;;;;;;27.60;24.90;;;;;;;17.10;83.91;99040.01;124865;1093;64687;-77
2021/06/28 00:29:03;;;;;;;28.30;25.50;;;;;;;17.09;84.35;99038.32;124795;1092;64306;-77
2021/06/28 00:31:30;;;;;;;26.20;23.53;;;;;;;17.09;84.14;99049.94;124732;1093;64735;-77
2021/06/28 00:33:58;;;;;;;28.37;25.53;;;;;;;17.08;84.27;99045.52;124792;1092;64309;-77
2021/06/28 00:36:26;;;;;;;27.27;23.73;;;;;;;17.06;84.00;99036.77;124725;1093;64428;-77
2021/06/28 00:38:53;;;;;;;25.60;23.07;;;;;;;17.04;84.30;99038.73;124788;1093;64287;-77
2021/06/28 00:41:20;;;;;;;25.90;23.23;;;;;;;17.04;84.64;99044.13;124804;1093;64371;-76
2021/06/28 00:43:47;;;;;;;25.30;22.60;;;;;;;17.03;84.57;99045.09;124810;1093;64281;-76
2021/06/28 00:46:14;;;;;;;25.13;22.27;;;;;;;17.06;84.57;99043.97;124756;1093;64434;-76
2021/06/28 00:48:42;;;;;;;24.03;21.53;;;;;;;17.03;84.49;99045.09;124806;1093;64290;-76
2021/06/28 00:51:09;;;;;;;22.17;20.17;;;;;;;17.06;84.68;99044.84;124789;1092;64284;-76
2021/06/28 00:53:37;;;;;;;22.80;20.67;;;;;;;17.09;84.53;99047.24;124805;1093;64287;-77
2021/06/28 00:56:11;;;;;;;23.07;20.77;;;;;;;17.08;84.53;99044.68;124778;1093;64287;-77
2021/06/28 00:58:43;;;;;;;25.97;23.37;;;;;;;17.11;84.81;99033.62;124790;1093;64290;-77
2021/06/28 01:01:12;;;;;;;24.57;22.27;;;;;;;17.12;85.34;99035.34;124883;1092;64737;-77
2021/06/28 01:03:39;;;;;;;22.50;20.30;;;;;;;17.13;84.79;99037.02;124804;1092;64215;-77
2021/06/28 01:06:11;;;;;;;22.43;20.20;;;;;;;17.05;84.57;99051.20;124816;1093;64287;-77
2021/06/28 01:08:38;;;;;;;20.50;18.60;;;;;;;16.97;84.70;99042.98;124757;1092;64244;-77
2021/06/28 01:11:06;;;;;;;21.87;19.77;;;;;;;16.92;84.52;99047.10;124766;1093;64341;-77
2021/06/28 01:13:36;;;;;;;22.00;19.97;;;;;;;16.87;84.76;99044.83;124797;1093;64471;-77
2021/06/28 01:16:04;;;;;;;20.50;18.47;;;;;;;16.86;85.31;99046.67;124821;1093;64283;-77
2021/06/28 01:18:32;;;;;;;20.60;18.60;;;;;;;16.86;84.95;99041.29;124822;1093;64280;-77
2021/06/28 01:21:01;;;;;;;17.97;16.17;;;;;;;16.84;85.05;99040.58;124819;1093;64268;-77
2021/06/28 01:23:33;;;;;;;20.10;18.20;;;;;;;16.82;84.97;99044.40;124792;1093;64252;-77
2021/06/28 01:26:05;;;;;;;20.43;18.67;;;;;;;16.77;85.08;99038.55;124849;1093;64348;-77
2021/06/28 01:28:33;;;;;;;20.00;18.03;;;;;;;16.70;85.09;99045.52;124778;1093;64245;-77
2021/06/28 01:31:05;;;;;;;22.57;20.40;;;;;;;16.63;85.38;99037.14;124779;1092;64322;-77
2021/06/28 01:33:32;;;;;;;19.97;18.20;;;;;;;16.59;85.29;99028.50;124845;1093;64338;-77
2021/06/28 01:36:00;;;;;;;19.83;18.03;;;;;;;16.55;85.51;99034.30;124820;1092;64245;-77
2021/06/28 01:38:27;;;;;;;18.40;16.70;;;;;;;16.53;85.33;99045.19;124756;1093;64241;-78
2021/06/28 01:40:55;;;;;;;18.57;16.77;;;;;;;16.49;85.53;99042.94;124808;1093;64287;-76
2021/06/28 01:43:25;;;;;;;18.37;16.43;;;;;;;16.46;85.80;99047.59;124817;1093;64274;-76
2021/06/28 01:45:54;;;;;;;19.97;18.07;;;;;;;16.45;85.46;99039.66;124790;1093;64258;-76
2021/06/28 01:48:22;;;;;;;19.43;17.53;;;;;;;16.37;85.61;99043.03;124778;1093;64265;-76
2021/06/28 01:50:51;;;;;;;20.30;18.30;;;;;;;16.37;86.26;99040.34;124837;1093;64213;-76
2021/06/28 01:53:19;;;;;;;21.53;19.43;;;;;;;16.38;85.76;99038.53;124764;1093;64287;-76
2021/06/28 01:55:46;;;;;;;22.47;20.27;;;;;;;16.35;86.09;99042.34;124854;1093;64284;-76
2021/06/28 01:58:16;;;;;;;22.03;19.93;;;;;;;16.34;86.01;99039.78;124830;1093;64223;-76
2021/06/28 02:00:53;;;;;;;23.63;21.33;;;;;;;16.31;86.02;99040.06;124814;1093;64444;-76
2021/06/28 02:03:23;;;;;;;20.63;18.63;;;;;;;16.29;85.99;99036.66;124732;1093;64325;-76
2021/06/28 02:05:50;;;;;;;20.60;18.50;;;;;;;16.23;86.17;99041.59;124814;1093;64225;-76
2021/06/28 02:08:19;;;;;;;20.93;19.07;;;;;;;16.19;86.23;99037.50;124800;1093;64310;-77
2021/06/28 02:10:49;;;;;;;20.40;18.57;;;;;;;16.17;86.30;99033.24;124819;1093;64260;-78
2021/06/28 02:13:22;;;;;;;20.00;18.20;;;;;;;16.14;85.94;99031.67;124800;1093;64191;-76
2021/06/28 02:15:52;;;;;;;20.47;18.57;;;;;;;16.10;85.93;99030.23;124834;1093;64284;-76
2021/06/28 02:18:26;;;;;;;19.67;17.87;;;;;;;16.15;86.41;99030.67;124835;1093;64309;-76
2021/06/28 02:20:55;;;;;;;17.87;15.97;;;;;;;16.23;86.35;99024.61;124837;1093;64271;-76
2021/06/28 02:24:13;;;;;;;18.43;16.70;;;;;;;16.22;85.78;99028.30;124857;1093;64267;-77
2021/06/28 02:26:42;;;;;;;14.80;13.40;;;;;;;16.13;85.68;99034.48;124816;1093;64319;-77
2021/06/28 02:29:09;;;;;;;15.70;14.10;;;;;;;16.07;85.57;99040.42;124898;1093;64281;-78
2021/06/28 02:31:38;;;;;;;16.07;14.50;;;;;;;16.03;85.57;99029.08;124804;1093;64175;-78
2021/06/28 02:34:05;;;;;;;17.83;16.27;;;;;;;15.96;85.65;99038.69;124851;1093;64310;-78
2021/06/28 02:36:33;;;;;;;16.30;14.80;;;;;;;15.94;85.73;99040.66;124826;1093;64277;-78
2021/06/28 02:39:01;;;;;;;16.67;15.27;;;;;;;15.95;85.89;99051.25;124754;1093;64415;-78
2021/06/28 02:41:28;;;;;;;17.80;16.00;;;;;;;15.98;86.16;99042.06;124816;1093;64281;-78
2021/06/28 02:43:56;;;;;;;18.20;16.50;;;;;;;15.95;85.80;99042.34;124801;1093;64249;-77
2021/06/28 02:46:25;;;;;;;17.63;15.93;;;;;;;15.95;85.99;99040.50;124830;1093;64260;-77
2021/06/28 02:48:53;;;;;;;18.33;16.43;;;;;;;15.99;85.62;99036.57;124858;1093;64389;-77
2021/06/28 02:51:21;;;;;;;16.80;15.30;;;;;;;16.02;85.60;99038.14;124793;1093;64383;-78
2021/06/28 02:53:48;;;;;;;20.93;18.67;;;;;;;16.06;85.67;99034.20;124781;1093;64409;-78
2021/06/28 02:56:16;;;;;;;20.60;18.37;;;;;;;16.10;85.89;99037.45;124783;1093;64242;-78
2021/06/28 02:58:46;;;;;;;20.30;18.30;;;;;;;16.08;85.26;99034.89;124839;1093;64265;-76
2021/06/28 03:01:15;;;;;;;22.77;20.07;;;;;;;16.09;85.92;99043.80;124784;1093;64377;-76
2021/06/28 03:03:42;;;;;;;23.15;20.80;;;;;;;16.14;85.93;99042.43;124887;1093;64792;-76
2021/06/28 03:06:10;;;;;;;21.53;19.27;;;;;;;16.27;86.16;99036.78;124834;1092;64329;-76
2021/06/28 03:08:38;;;;;;;21.53;19.00;;;;;;;16.37;85.94;99043.03;124783;1093;64188;-76
2021/06/28 03:11:05;;;;;;;22.47;20.27;;;;;;;16.43;86.08;99044.34;124791;1093;64284;-77
2021/06/28 03:13:33;;;;;;;20.70;18.60;;;;;;;16.54;85.75;99046.91;124848;1093;64395;-77
2021/06/28 03:16:01;;;;;;;21.63;19.33;;;;;;;16.61;85.68;99048.06;124789;1093;64274;-77
2021/06/28 03:18:28;;;;;;;21.10;19.17;;;;;;;16.64;85.19;99033.44;124821;1093;64692;-78
2021/06/28 03:20:55;;;;;;;19.27;17.27;;;;;;;16.69;85.02;99036.56;124756;1093;64364;-77
2021/06/28 03:23:23;;;;;;;20.10;18.10;;;;;;;16.79;85.23;99039.30;124763;1093;64191;-77
2021/06/28 03:25:51;;;;;;;19.47;17.50;;;;;;;16.91;84.85;99034.64;124746;1093;64294;-77
2021/06/28 03:28:18;;;;;;;20.70;18.17;;;;;;;16.99;84.65;99040.16;124783;1093;64214;-77
2021/06/28 03:30:46;;;;;;;19.97;18.00;;;;;;;17.32;84.41;99037.02;124773;1092;64241;-76
2021/06/28 03:33:13;;;;;;;19.60;17.87;;;;;;;18.28;82.79;99026.02;124797;1093;64242;-76
2021/06/28 03:35:40;;;;;;;18.87;16.83;;;;;;;18.96;81.04;99030.13;124811;1093;64271;-77
2021/06/28 03:38:07;;;;;;;17.87;16.10;;;;;;;19.47;80.18;99023.92;124800;1093;64648;-77
2021/06/28 03:40:35;;;;;;;20.83;18.73;;;;;;;20.25;78.93;99022.13;124798;1092;64431;-77
2021/06/28 03:43:06;;;;;;;21.37;19.50;;;;;;;20.97;77.42;99022.50;124815;1092;64271;-77
2021/06/28 03:45:34;;;;;;;18.63;17.03;;;;;;;21.33;76.61;99014.88;124771;1093;64328;-77
2021/06/28 03:48:03;;;;;;;19.67;17.70;;;;;;;21.43;76.21;99017.41;124801;1093;64271;-77
2021/06/28 03:50:31;;;;;;;19.63;17.83;;;;;;;21.45;75.87;99020.81;124849;1093;64297;-77
2021/06/28 03:52:59;;;;;;;17.83;16.30;;;;;;;21.56;75.10;99017.73;124774;1093;64273;-77
2021/06/28 03:55:26;;;;;;;17.93;16.27;;;;;;;21.95;74.32;99025.09;124771;1092;64272;-78
2021/06/28 03:57:54;;;;;;;19.57;17.77;;;;;;;22.66;72.61;99016.97;124799;1093;64185;-77
2021/06/28 04:00:24;;;;;;;20.10;18.23;;;;;;;23.31;71.48;99018.38;124792;1093;64268;-77
2021/06/28 04:02:52;;;;;;;20.03;18.43;;;;;;;23.92;70.68;99016.41;124809;1093;64372;-77
2021/06/28 04:05:22;;;;;;;18.77;17.07;;;;;;;24.47;68.91;99022.39;124812;1093;64369;-78
2021/06/28 04:07:50;;;;;;;17.37;15.87;;;;;;;24.90;68.24;99017.81;124794;1093;64271;-76
2021/06/28 04:10:20;;;;;;;17.25;15.85;;;;;;;25.24;67.78;99018.17;124822;1093;64296;-76
2021/06/28 04:12:49;;;;;;;17.80;16.27;;;;;;;24.74;67.60;99023.52;124838;1093;64271;-76
2021/06/28 04:15:17;;;;;;;16.35;14.83;;;;;;;24.05;68.10;99023.92;124947;1093;64294;-77
2021/06/28 04:17:48;;;;;;;15.83;14.33;;;;;;;23.58;68.48;99025.08;124764;1093;64357;-77
2021/06/28 04:20:17;;;;;;;17.10;15.57;;;;;;;23.08;68.72;99027.39;124750;1093;64431;-77
2021/06/28 04:22:45;;;;;;;16.48;15.10;;;;;;;22.83;68.83;99025.84;124741;1093;64255;-77
2021/06/28 04:25:15;;;;;;;17.25;15.80;;;;;;;22.84;68.62;99035.71;124802;1093;64410;-77
2021/06/28 04:27:43;;;;;;;17.60;16.20;;;;;;;22.94;68.44;99030.89;124907;1093;64245;-77
2021/06/28 04:30:13;;;;;;;18.53;16.93;;;;;;;23.56;67.78;99029.86;124873;1092;64412;-77
2021/06/28 04:32:41;;;;;;;18.00;16.53;;;;;;;24.07;66.78;99028.14;124911;1093;64316;-77
2021/06/28 04:35:11;;;;;;;18.07;16.43;;;;;;;24.72;65.56;99039.22;124858;1093;64650;-77
2021/06/28 04:37:40;;;;;;;21.10;19.47;;;;;;;25.24;64.58;99038.09;124868;1093;64199;-77
2021/06/28 04:40:10;;;;;;;22.27;20.43;;;;;;;25.67;63.83;99035.28;124845;1093;64287;-80
2021/06/28 04:42:38;;;;;;;24.97;23.00;;;;;;;26.14;62.85;99041.92;124935;1093;64290;-77
2021/06/28 04:45:06;;;;;;;23.53;21.57;;;;;;;26.58;61.73;99039.84;124832;1093;64358;-77
2021/06/28 04:47:34;;;;;;;18.50;17.07;;;;;;;26.86;61.13;99042.45;124865;1093;64745;-77
2021/06/28 04:50:03;;;;;;;17.63;16.13;;;;;;;27.21;60.62;99043.17;124860;1093;64583;-77
2021/06/28 04:52:31;;;;;;;18.20;16.53;;;;;;;27.57;59.96;99034.55;124844;1093;64360;-76
2021/06/28 04:55:03;;;;;;;17.30;15.90;;;;;;;28.04;59.20;99028.16;124860;1093;64293;-77
2021/06/28 04:57:31;;;;;;;16.20;14.90;;;;;;;28.51;58.30;99028.88;124853;1093;64390;-77
2021/06/28 04:59:58;;;;;;;16.57;15.00;;;;;;;28.61;56.74;99029.25;124707;1092;64344;-77
2021/06/28 05:02:25;;;;;;;16.50;14.83;;;;;;;28.80;57.60;99032.94;124814;1093;64216;-77
2021/06/28 05:04:53;;;;;;;15.37;14.17;;;;;;;28.92;55.85;99041.33;124823;1093;64291;-77
2021/06/28 05:07:20;;;;;;;16.23;14.73;;;;;;;28.85;55.26;99042.19;124763;1093;64223;-76
2021/06/28 05:09:47;;;;;;;15.37;13.97;;;;;;;28.98;54.80;99051.41;124787;1093;64290;-77
2021/06/28 05:12:15;;;;;;;14.40;13.07;;;;;;;29.01;54.39;99050.96;124775;1093;64328;-77
2021/06/28 05:14:43;;;;;;;16.27;14.97;;;;;;;28.77;53.08;99050.67;124861;1092;64284;-77
2021/06/28 05:17:11;;;;;;;16.33;14.93;;;;;;;28.43;53.74;99051.86;124792;1093;64242;-77
2021/06/28 05:19:38;;;;;;;14.83;13.47;;;;;;;28.36;53.67;99049.16;124765;1093;64250;-77
2021/06/28 05:22:06;;;;;;;16.70;15.27;;;;;;;28.42;53.69;99053.77;124818;1093;64227;-77
2021/06/28 05:24:34;;;;;;;14.95;13.80;;;;;;;28.78;53.95;99057.86;124697;1093;64362;-77
2021/06/28 05:27:01;;;;;;;15.63;14.20;;;;;;;28.92;52.97;99050.39;124772;1093;64218;-77
2021/06/28 05:29:29;;;;;;;15.60;14.37;;;;;;;28.80;52.34;99052.97;124807;1093;64336;-77
2021/06/28 05:31:56;;;;;;;15.67;14.27;;;;;;;28.94;53.17;99055.64;124794;1092;64284;-77
2021/06/28 05:34:23;;;;;;;15.70;14.47;;;;;;;29.19;53.00;99061.22;124792;1092;64444;-77
2021/06/28 05:36:51;;;;;;;15.57;14.43;;;;;;;29.47;52.28;99063.56;124748;1091;64300;-77
2021/06/28 05:39:18;;;;;;;17.43;16.13;;;;;;;29.70;52.45;99066.56;124804;1093;64338;-77
2021/06/28 05:41:45;;;;;;;18.60;17.00;;;;;;;29.94;51.56;99059.36;124773;1093;64191;-77
2021/06/28 05:44:12;;;;;;;17.80;16.50;;;;;;;29.71;50.51;99064.65;124759;1092;64309;-78
2021/06/28 05:46:39;;;;;;;16.90;15.50;;;;;;;29.44;50.18;99058.52;124768;1093;64287;-78
2021/06/28 05:49:07;;;;;;;18.13;16.50;;;;;;;29.12;50.16;99055.77;124783;1093;64283;-76
2021/06/28 05:51:35;;;;;;;17.30;16.00;;;;;;;29.26;51.00;99051.88;124812;1093;64383;-78
2021/06/28 05:54:02;;;;;;;17.90;16.40;;;;;;;29.34;51.20;99061.75;124812;1093;64296;-76
2021/06/28 05:56:29;;;;;;;18.10;16.60;;;;;;;29.25;50.16;99058.45;124644;1093;64390;-76
2021/06/28 05:58:57;;;;;;;18.87;17.17;;;;;;;29.09;50.44;99062.54;124755;1093;64265;-77
2021/06/28 06:01:24;;;;;;;17.40;15.77;;;;;;;28.79;50.21;99056.79;124769;1091;64244;-76
2021/06/28 06:03:51;;;;;;;16.27;14.83;;;;;;;28.95;51.06;99058.17;124790;1093;64265;-76
2021/06/28 06:06:18;;;;;;;17.83;16.33;;;;;;;29.29;50.44;99065.16;124799;1093;64197;-76
2021/06/28 06:08:45;;;;;;;18.13;16.60;;;;;;;29.47;50.30;99063.56;124763;1092;64683;-76
2021/06/28 06:11:13;;;;;;;17.67;15.90;;;;;;;29.85;50.42;99071.69;124782;1093;64428;-76
2021/06/28 06:13:40;;;;;;;17.50;15.80;;;;;;;30.18;49.38;99063.11;124772;1093;64361;-77
2021/06/28 06:16:07;;;;;;;16.77;15.20;;;;;;;30.34;48.47;99066.36;124796;1093;64214;-77
2021/06/28 06:18:34;;;;;;;16.23;14.73;;;;;;;30.39;48.60;99070.09;124811;1093;64313;-77
2021/06/28 06:21:02;;;;;;;14.37;13.23;;;;;;;30.38;47.41;99073.06;124777;1093;64357;-77
2021/06/28 06:23:29;;;;;;;15.90;14.57;;;;;;;30.21;47.73;99070.06;124787;1092;64338;-77
2021/06/28 06:25:57;;;;;;;13.93;12.83;;;;;;;30.18;47.40;99071.36;124783;1093;64290;-77
2021/06/28 06:28:24;;;;;;;14.80;13.57;;;;;;;30.19;47.70;99077.69;124794;1093;64380;-77
2021/06/28 06:30:51;;;;;;;16.80;15.33;;;;;;;30.28;47.96;99068.13;124790;1093;64220;-77
2021/06/28 06:33:21;;;;;;;16.90;15.33;;;;;;;30.53;48.11;99069.94;124790;1093;64264;-77
2021/06/28 06:35:50;;;;;;;15.03;13.83;;;;;;;30.83;47.42;99068.09;124834;1093;64249;-77
2021/06/28 06:38:17;;;;;;;16.68;15.30;;;;;;;30.95;47.06;99070.05;124841;1093;64188;-77
2021/06/28 06:40:48;;;;;;;15.27;14.00;;;;;;;30.98;46.97;99064.91;124770;1092;64347;-77
2021/06/28 06:43:16;;;;;;;14.63;13.33;;;;;;;30.90;47.00;99067.98;124799;1093;64271;-77
2021/06/28 06:45:44;;;;;;;15.83;14.47;;;;;;;30.93;47.02;99081.28;124763;1093;64293;-77
2021/06/28 06:48:11;;;;;;;15.07;13.97;;;;;;;30.90;45.98;99076.25;124769;1092;64290;-79
2021/06/28 06:50:40;;;;;;;16.13;14.73;;;;;;;30.49;45.11;99076.95;124780;1093;64590;-78
2021/06/28 06:53:07;;;;;;;18.77;17.17;;;;;;;30.07;45.74;99087.75;124786;1093;64271;-79
2021/06/28 06:55:35;;;;;;;19.27;17.67;;;;;;;30.17;46.49;99090.81;124771;1093;64261;-79
2021/06/28 06:58:08;;;;;;;17.20;15.85;;;;;;;30.32;46.36;99084.99;124852;1093;64434;-79
2021/06/28 07:00:37;;;;;;;19.67;18.07;;;;;;;29.97;45.40;99082.80;124923;1093;64303;-78
2021/06/28 07:03:04;;;;;;;18.27;16.77;;;;;;;29.69;46.98;99084.09;124814;1093;64287;-78
2021/06/28 07:05:31;;;;;;;19.13;17.53;;;;;;;29.86;47.49;99078.02;124809;1093;64252;-78
2021/06/28 07:07:59;;;;;;;21.03;18.87;;;;;;;29.99;47.54;99088.91;124745;1093;64235;-78
2021/06/28 07:10:27;;;;;;;19.87;17.97;;;;;;;30.09;47.46;99082.88;124738;1093;64244;-79
2021/06/28 07:12:54;;;;;;;19.90;18.27;;;;;;;30.27;47.56;99084.83;124871;1093;64278;-79
2021/06/28 07:15:22;;;;;;;17.03;15.50;;;;;;;30.52;46.64;99082.02;124761;1093;64228;-79
2021/06/28 07:17:50;;;;;;;17.53;16.03;;;;;;;30.17;45.67;99088.91;124777;1093;64237;-79
2021/06/28 07:20:22;;;;;;;17.63;15.87;;;;;;;29.68;45.58;99093.41;124763;1093;64143;-79
2021/06/28 07:22:52;;;;;;;17.17;15.53;;;;;;;29.31;46.58;99089.66;124878;1093;64271;-79
2021/06/28 07:25:21;;;;;;;16.23;14.93;;;;;;;29.25;47.20;99087.78;124813;1093;64181;-79
2021/06/28 07:27:49;;;;;;;16.90;15.40;;;;;;;29.23;47.84;99090.77;124822;1093;64265;-79
2021/06/28 07:30:21;;;;;;;17.83;16.17;;;;;;;29.47;47.65;99091.85;124768;1093;64220;-79
2021/06/28 07:32:53;;;;;;;16.83;15.13;;;;;;;29.49;47.77;99084.24;124861;1093;64265;-78
2021/06/28 07:35:21;;;;;;;17.97;16.07;;;;;;;29.21;48.00;99084.64;124752;1093;64312;-79
2021/06/28 07:37:49;;;;;;;18.50;16.93;;;;;;;29.00;47.61;99088.55;124778;1093;64265;-79
2021/06/28 07:40:19;;;;;;;18.20;16.30;;;;;;;28.88;48.58;99084.80;124817;1093;64265;-78
2021/06/28 07:42:49;;;;;;;18.13;16.50;;;;;;;28.72;48.02;99085.31;124879;1093;64284;-79
2021/06/28 07:45:18;;;;;;;17.85;16.15;;;;;;;28.18;48.62;99073.67;124857;1093;64274;-78
2021/06/28 07:47:46;;;;;;;;;;;;;;;28.07;50.16;99085.27;124852;1093;64291;-78
2021/06/28 07:50:15;;;;;;;20.80;18.80;;;;;;;28.10;51.02;99080.22;124801;1093;64332;-79
2021/06/28 07:52:42;;;;;;;21.43;18.97;;;;;;;28.23;50.79;99082.09;124800;1093;64284;-78
2021/06/28 07:55:11;;;;;;;19.63;17.87;;;;;;;28.17;50.77;99091.16;124799;1093;64425;-79
2021/06/28 07:57:39;;;;;;;;;;;;;;;28.15;50.94;99079.59;124853;1093;64197;-80
2021/06/28 08:00:12;;;;;;;21.20;19.40;;;;;;;28.09;50.29;99088.64;124770;1093;64255;-78
2021/06/28 08:02:40;;;;;;;19.80;17.80;;;;;;;27.95;50.70;99085.92;124802;1093;64421;-83
2021/06/28 08:05:08;;;;;;;16.83;15.30;;;;;;;28.03;50.56;99081.29;124803;1093;64191;-78
2021/06/28 08:07:35;;;;;;;12.83;11.63;;;;;;;28.08;50.82;99084.23;124828;1092;64290;-78
2021/06/28 08:10:06;;;;;;;13.87;12.70;;;;;;;28.07;49.71;99086.14;124793;1093;64287;-79
2021/06/28 08:12:34;;;;;;;14.27;13.07;;;;;;;28.01;49.70;99086.97;124795;1093;64306;-78
2021/06/28 08:15:01;;;;;;;14.93;13.40;;;;;;;27.96;48.88;99090.38;124729;1093;64425;-78
2021/06/28 08:17:28;;;;;;;16.00;14.53;;;;;;;27.84;49.69;99091.22;124796;1093;64383;-78
2021/06/28 08:19:55;;;;;;;12.93;11.93;;;;;;;27.88;49.55;99085.09;124700;1093;64358;-78
2021/06/28 08:22:22;;;;;;;11.35;10.45;;;;;;;27.91;49.53;99086.56;124753;1093;64244;-78
2021/06/28 08:24:50;;;;;;;10.27;9.53;;;;;;;27.94;48.64;99084.26;124757;1093;64402;-78
2021/06/28 08:27:17;;;;;;;12.83;11.30;;;;;;;27.96;49.15;99084.02;124841;1093;64271;-78
2021/06/28 08:29:44;;;;;;;10.10;9.10;;;;;;;27.98;49.84;99090.14;124722;1093;64293;-79
2021/06/28 08:32:11;;;;;;;10.27;9.37;;;;;;;28.10;49.41;99084.87;124803;1093;64284;-78
2021/06/28 08:34:39;;;;;;;10.03;9.23;;;;;;;28.15;48.93;99080.42;124787;1093;64273;-77
2021/06/28 08:37:06;;;;;;;9.53;8.73;;;;;;;28.23;49.61;99093.06;124788;1092;64459;-78
2021/06/28 08:39:33;;;;;;;9.73;8.93;;;;;;;28.51;49.63;99090.03;124758;1093;64302;-77
2021/06/28 08:42:05;;;;;;;10.23;9.33;;;;;;;28.70;48.25;99087.42;124789;1093;64399;-79
2021/06/28 08:44:34;;;;;;;9.00;8.17;;;;;;;28.64;48.49;99083.66;124724;1093;64329;-78
2021/06/28 08:47:01;;;;;;;8.83;8.15;;;;;;;28.81;48.15;99095.83;124833;1093;64297;-79
2021/06/28 08:49:29;;;;;;;10.07;9.17;;;;;;;29.01;48.21;99090.21;124721;1092;64291;-78
2021/06/28 08:51:58;;;;;;;11.87;9.27;;;;;;;28.99;46.80;99091.49;124804;1093;64244;-78
2021/06/28 08:54:25;;;;;;;8.97;8.37;;;;;;;28.86;45.63;99089.69;124813;1093;64383;-77
2021/06/28 08:56:52;;;;;;;10.50;9.47;;;;;;;28.72;46.42;99091.63;124795;1093;64290;-81
2021/06/28 08:59:20;;;;;;;21.97;12.20;;;;;;;28.72;46.92;99091.63;124778;1093;64291;-79
2021/06/28 09:01:47;;;;;;;10.33;9.50;;;;;;;28.78;45.75;99098.14;124753;1093;64261;-78
2021/06/28 09:04:14;;;;;;;11.07;9.33;;;;;;;28.82;47.40;99088.43;124831;1093;64271;-78
2021/06/28 09:06:42;;;;;;;10.67;9.43;;;;;;;28.93;47.59;99090.47;124769;1093;64319;-78
2021/06/28 09:09:12;;;;;;;10.43;9.47;;;;;;;28.96;45.75;99083.70;124726;1093;64376;-79
2021/06/28 09:11:50;;;;;;;9.03;8.33;;;;;;;28.82;45.58;99085.69;124802;1091;64291;-78
2021/06/28 09:14:18;;;;;;;8.47;7.87;;;;;;;28.71;45.65;99089.13;124790;1093;64382;-77
2021/06/28 09:16:46;;;;;;;8.83;8.17;;;;;;;28.75;46.44;99093.94;124783;1093;64290;-78
2021/06/28 09:19:17;;;;;;;9.27;8.47;;;;;;;28.85;45.84;99080.59;124856;1093;64284;-79
2021/06/28 09:21:50;;;;;;;10.90;8.70;;;;;;;28.97;46.20;99077.17;124803;1093;64293;-78
2021/06/28 09:24:38;;;;;;;9.67;8.97;;;;;;;29.06;46.33;99078.62;124840;1093;64220;-79
2021/06/28 09:27:12;;;;;;;8.50;7.73;;;;;;;29.15;46.30;99079.19;124722;1092;64293;-78
2021/06/28 09:29:52;;;;;;;8.93;8.23;;;;;;;29.20;46.40;99077.48;124817;1093;64313;-78
2021/06/28 09:32:21;;;;;;;8.50;7.90;;;;;;;29.30;45.87;99077.81;124824;1093;64287;-78
2021/06/28 09:34:51;;;;;;;8.50;7.67;;;;;;;29.40;46.35;99076.48;124771;1093;64245;-78
2021/06/28 09:37:24;;;;;;;7.27;6.57;;;;;;;29.46;45.19;99076.42;124833;1093;64264;-78
2021/06/28 09:39:59;;;;;;;7.53;6.93;;;;;;;29.54;45.68;99075.31;124774;1093;64229;-78
2021/06/28 09:42:29;;;;;;;7.35;6.75;;;;;;;29.57;44.84;99071.27;124785;1093;64341;-78
2021/06/28 09:45:02;;;;;;;7.63;6.93;;;;;;;29.49;45.02;99065.02;124933;1092;64298;-78
2021/06/28 09:47:33;;;;;;;7.47;6.73;;;;;;;29.40;44.05;99066.34;124898;1093;64294;-78
2021/06/28 09:50:03;;;;;;;7.47;6.93;;;;;;;29.36;44.31;99073.36;124798;1092;64265;-78
2021/06/28 09:52:32;;;;;;;7.03;6.43;;;;;;;29.37;44.43;99061.30;124770;1093;64271;-78
2021/06/28 09:55:14;;;;;;;6.23;5.83;;;;;;;29.41;43.52;99064.43;124761;1093;64273;-78
2021/06/28 09:58:08;;;;;;;6.07;5.47;;;;;;;29.49;43.38;99064.16;124772;1093;64271;-78
2021/06/28 10:00:39;;;;;;;5.53;5.00;;;;;;;29.71;43.22;99057.24;124778;1093;64241;-78
2021/06/28 10:03:23;;;;;;;6.03;5.53;;;;;;;29.85;42.45;99063.45;124796;1093;64194;-78
2021/06/28 10:06:03;;;;;;;6.90;6.30;;;;;;;29.90;43.42;99060.86;124819;1093;64347;-78
2021/06/28 10:08:35;;;;;;;5.60;5.23;;;;;;;29.92;42.41;99061.48;124865;1093;64194;-78
2021/06/28 10:11:22;;;;;;;5.73;5.33;;;;;;;29.98;42.21;99063.31;124869;1092;64218;-76
2021/06/28 10:13:56;;;;;;;5.60;5.20;;;;;;;30.02;41.80;99063.72;124869;1091;64242;-78
2021/06/28 10:16:27;;;;;;;6.50;6.00;;;;;;;30.00;40.37;99056.77;124851;1093;64290;-78
2021/06/28 10:18:55;;;;;;;6.97;6.37;;;;;;;30.03;41.28;99059.89;124778;1093;64283;-78
2021/06/28 10:21:24;;;;;;;5.75;5.35;;;;;;;30.11;40.36;99053.25;124753;1093;64330;-78
2021/06/28 10:23:52;;;;;;;5.93;5.53;;;;;;;30.17;40.06;99063.33;124758;1093;64341;-78
2021/06/28 10:26:20;;;;;;;6.37;5.77;;;;;;;30.13;40.79;99056.63;124796;1093;64191;-78
2021/06/28 10:28:48;;;;;;;6.07;5.57;;;;;;;30.21;40.55;99053.56;124803;1093;64309;-78
2021/06/28 10:31:16;;;;;;;6.07;5.67;;;;;;;30.24;40.89;99055.89;124782;1093;64185;-79
2021/06/28 10:33:51;;;;;;;6.00;5.50;;;;;;;30.24;39.96;99055.05;124792;1093;64290;-77
2021/06/28 10:36:20;;;;;;;6.90;6.27;;;;;;;30.24;41.33;99044.89;124769;1093;64297;-77
2021/06/28 10:38:50;;;;;;;6.73;6.10;;;;;;;30.34;41.63;99045.20;124837;1093;64284;-78
2021/06/28 10:41:39;;;;;;;6.77;6.17;;;;;;;30.44;41.29;99036.41;124781;1093;64280;-78
2021/06/28 10:44:12;;;;;;;7.20;6.70;;;;;;;30.50;40.05;99045.64;124820;1093;64291;-78
2021/06/28 10:46:42;;;;;;;7.23;6.63;;;;;;;30.32;38.53;99044.58;124806;1093;64290;-78
2021/06/28 10:49:11;;;;;;;7.90;7.27;;;;;;;30.18;38.77;99041.12;124835;1093;64318;-78
2021/06/28 10:51:45;;;;;;;7.30;6.70;;;;;;;30.18;39.40;99045.78;124825;1093;64272;-78
2021/06/28 10:54:19;;;;;;;6.90;6.40;;;;;;;30.32;40.67;99047.33;124785;1092;64364;-78
2021/06/28 10:56:54;;;;;;;7.87;6.83;;;;;;;30.37;40.01;99041.98;124785;1092;64374;-79
2021/06/28 10:59:24;;;;;;;7.05;6.55;;;;;;;30.31;38.97;99037.41;124762;1093;64434;-78
2021/06/28 11:01:54;;;;;;;7.60;7.00;;;;;;;30.16;38.13;99037.75;124854;1093;64279;-79
2021/06/28 11:04:30;;;;;;;7.27;6.77;;;;;;;30.08;38.31;99037.22;124797;1093;64241;-79
2021/06/28 11:07:03;;;;;;;7.77;6.73;;;;;;;30.05;39.03;99029.44;124815;1093;64276;-78
2021/06/28 11:09:47;;;;;;;7.30;6.73;;;;;;;30.08;39.96;99043.55;124781;1093;64345;-78
2021/06/28 11:12:32;;;;;;;6.37;5.97;;;;;;;30.24;39.79;99031.14;124828;1093;64418;-79
2021/06/28 11:15:20;;;;;;;6.93;6.43;;;;;;;30.38;39.44;99026.31;124790;1093;64271;-79
2021/06/28 11:17:50;;;;;;;6.40;5.80;;;;;;;30.48;39.81;99032.11;124849;1093;65562;-79
2021/06/28 11:20:27;;;;;;;7.20;6.60;;;;;;;30.49;38.65;99019.20;124848;1093;64235;-78
2021/06/28 11:23:01;;;;;;;6.00;5.50;;;;;;;30.56;38.74;99020.80;124875;1093;64360;-77
2021/06/28 11:25:39;;;;;;;5.63;5.23;;;;;;;30.58;38.40;99021.41;124765;1093;64245;-78